createdAt,value
2018-03-29T00:01:34.015Z,72.41
2018-03-29T00:04:03.022Z,72.59
2018-03-29T00:06:31.279Z,72.85
2018-03-29T00:08:59.521Z,72.45
2018-03-29T00:11:27.764Z,72.26
2018-03-29T00:13:55.998Z,72.01
2018-03-29T00:16:24.234Z,72.79
2018-03-29T00:18:52.470Z,72.65
2018-03-29T00:21:21.482Z,72.71
2018-03-29T00:23:49.734Z,72.21
2018-03-29T00:26:18.738Z,72.62
2018-03-29T00:28:46.980Z,72.70
2018-03-29T00:31:15.226Z,72.03
2018-03-29T00:33:43.465Z,71.94
2018-03-29T00:36:11.713Z,72.23
2018-03-29T00:38:39.946Z,71.60
2018-03-29T00:41:08.190Z,71.08
2018-03-29T00:43:36.433Z,70.43
2018-03-29T00:46:04.678Z,70.79
2018-03-29T00:48:32.916Z,70.62
2018-03-29T00:51:01.922Z,70.03
2018-03-29T00:53:45.162Z,70.17
2018-03-29T00:56:13.401Z,70.97
2018-03-29T00:58:42.419Z,71.23
2018-03-29T01:01:10.657Z,70.86
2018-03-29T01:03:39.658Z,70.69
2018-03-29T01:06:08.677Z,70.95
2018-03-29T01:08:36.918Z,71.09
2018-03-29T01:11:05.922Z,71.60
2018-03-29T01:13:34.936Z,72.54
2018-03-29T01:16:03.179Z,73.92
2018-03-29T01:18:31.417Z,74.79
2018-03-29T01:20:59.654Z,76.41
2018-03-29T01:23:27.905Z,78.73
2018-03-29T01:25:56.905Z,80.09
2018-03-29T01:28:25.921Z,81.61
2018-03-29T01:30:54.169Z,83.06
2018-03-29T01:33:23.182Z,84.90
2018-03-29T01:35:51.419Z,84.25
2018-03-29T01:38:19.842Z,83.67
2018-03-29T01:40:48.096Z,83.86
2018-03-29T01:43:16.330Z,83.90
2018-03-29T01:45:44.569Z,83.83
2018-03-29T01:48:12.809Z,84.02
2018-03-29T01:50:41.831Z,84.66
2018-03-29T01:53:10.111Z,83.18
2018-03-29T01:55:38.314Z,83.50
2018-03-29T01:58:06.553Z,83.80
2018-03-29T02:00:35.557Z,82.13
2018-03-29T02:03:03.804Z,82.48
2018-03-29T02:05:32.817Z,81.93
2018-03-29T02:08:01.061Z,82.02
2018-03-29T02:10:30.078Z,81.64
2018-03-29T02:12:59.073Z,81.82
2018-03-29T02:15:27.320Z,81.47
2018-03-29T02:17:55.558Z,80.58
2018-03-29T02:20:23.800Z,81.84
2018-03-29T02:22:52.053Z,80.76
2018-03-29T02:25:21.066Z,80.11
2018-03-29T02:27:49.364Z,79.56
2018-03-29T02:30:18.429Z,78.13
2018-03-29T02:32:47.438Z,77.54
2018-03-29T02:35:15.687Z,78.09
2018-03-29T02:37:44.702Z,77.98
2018-03-29T02:40:13.697Z,78.41
2018-03-29T02:42:41.934Z,77.70
2018-03-29T02:45:10.265Z,77.38
2018-03-29T02:47:38.507Z,78.02
2018-03-29T02:50:07.506Z,77.86
2018-03-29T02:52:35.755Z,77.38
2018-03-29T02:55:03.995Z,77.51
2018-03-29T02:57:32.234Z,77.59
2018-03-29T03:00:01.241Z,77.45
2018-03-29T03:02:29.472Z,77.60
2018-03-29T03:04:57.713Z,77.27
2018-03-29T03:07:25.962Z,77.03
2018-03-29T03:09:54.204Z,77.25
2018-03-29T03:12:22.452Z,76.56
2018-03-29T03:14:50.698Z,76.25
2018-03-29T03:17:18.930Z,75.60
2018-03-29T03:19:47.169Z,75.57
2018-03-29T03:22:15.401Z,75.24
2018-03-29T03:24:44.408Z,74.11
2018-03-29T03:27:12.644Z,74.06
2018-03-29T03:29:40.889Z,73.44
2018-03-29T03:32:09.121Z,72.80
2018-03-29T03:34:38.129Z,72.57
2018-03-29T03:37:06.407Z,72.54
2018-03-29T03:39:34.610Z,74.23
2018-03-29T03:42:02.845Z,73.77
2018-03-29T03:44:31.093Z,73.63
2018-03-29T03:46:59.320Z,73.24
2018-03-29T03:49:27.560Z,72.82
2018-03-29T03:51:56.570Z,74.07
2018-03-29T03:54:24.805Z,73.75
2018-03-29T03:56:53.148Z,73.81
2018-03-29T03:59:21.385Z,73.38
2018-03-29T04:01:50.425Z,74.05
2018-03-29T04:04:18.656Z,73.68
2018-03-29T04:06:46.896Z,73.79
2018-03-29T04:09:15.141Z,73.93
2018-03-29T04:11:43.388Z,73.48
2018-03-29T04:14:11.630Z,73.55
2018-03-29T04:16:39.869Z,73.16
2018-03-29T04:19:08.109Z,73.25
2018-03-29T04:21:36.361Z,73.55
2018-03-29T04:24:05.373Z,73.18
2018-03-29T04:26:34.386Z,72.79
2018-03-29T04:29:02.622Z,72.52
2018-03-29T04:31:30.870Z,72.29
2018-03-29T04:33:59.114Z,71.70
2018-03-29T04:36:27.349Z,71.56
2018-03-29T04:38:56.361Z,71.49
2018-03-29T04:41:24.663Z,72.00
2018-03-29T04:43:52.912Z,71.42
2018-03-29T04:46:21.909Z,72.07
2018-03-29T04:48:50.157Z,71.82
2018-03-29T04:51:18.393Z,71.52
2018-03-29T04:53:46.641Z,72.16
2018-03-29T04:56:14.879Z,71.88
2018-03-29T04:58:43.117Z,71.76
2018-03-29T05:01:11.357Z,71.62
2018-03-29T05:03:40.361Z,73.01
2018-03-29T05:06:08.601Z,71.79
2018-03-29T05:08:36.848Z,71.62
2018-03-29T05:11:05.095Z,71.90
2018-03-29T05:13:33.337Z,71.92
2018-03-29T05:16:02.340Z,71.62
2018-03-29T05:18:31.350Z,72.59
2018-03-29T05:20:59.590Z,71.99
2018-03-29T05:23:27.825Z,72.37
2018-03-29T05:26:01.553Z,73.63
2018-03-29T05:28:29.789Z,72.67
2018-03-29T05:30:58.034Z,71.72
2018-03-29T05:33:27.041Z,71.69
2018-03-29T05:35:55.284Z,71.94
2018-03-29T05:38:23.513Z,72.09
2018-03-29T05:40:51.796Z,73.00
2018-03-29T05:43:19.992Z,72.43
2018-03-29T05:45:48.234Z,73.20
2018-03-29T05:48:16.478Z,72.34
2018-03-29T05:50:45.494Z,72.51
2018-03-29T05:53:13.731Z,72.63
2018-03-29T05:55:42.747Z,72.42
2018-03-29T05:58:10.977Z,73.16
2018-03-29T06:00:39.225Z,73.33
2018-03-29T06:03:07.527Z,72.93
2018-03-29T06:05:36.471Z,72.55
2018-03-29T06:08:04.711Z,72.65
2018-03-29T06:10:32.949Z,72.80
2018-03-29T06:13:01.190Z,72.85
2018-03-29T06:15:33.348Z,71.94
2018-03-29T06:18:02.350Z,70.95
2018-03-29T06:20:30.599Z,71.50
2018-03-29T06:22:58.838Z,70.77
2018-03-29T06:25:27.085Z,70.43
2018-03-29T06:27:55.330Z,70.63
2018-03-29T06:30:24.333Z,69.98
2018-03-29T06:32:53.346Z,70.55
2018-03-29T06:35:21.581Z,70.99
2018-03-29T06:37:49.826Z,71.25
2018-03-29T06:40:18.062Z,70.60
2018-03-29T06:42:46.313Z,70.29
2018-03-29T06:45:14.554Z,70.66
2018-03-29T06:47:42.797Z,70.99
2018-03-29T06:50:11.033Z,70.58
2018-03-29T06:52:39.283Z,70.36
2018-03-29T06:55:07.522Z,71.05
2018-03-29T06:57:35.767Z,70.99
2018-03-29T07:00:04.778Z,70.40
2018-03-29T07:02:33.791Z,69.90
2018-03-29T07:05:02.030Z,69.48
2018-03-29T07:07:30.270Z,69.63
2018-03-29T07:09:58.510Z,69.42
2018-03-29T07:12:26.760Z,69.53
2018-03-29T07:14:55.781Z,70.21
2018-03-29T07:17:24.014Z,69.32
2018-03-29T07:19:52.254Z,69.84
2018-03-29T07:22:20.499Z,69.58
2018-03-29T07:24:48.733Z,69.72
2018-03-29T07:27:16.989Z,69.92
2018-03-29T07:29:45.273Z,69.47
2018-03-29T07:32:13.461Z,69.50
2018-03-29T07:34:41.701Z,68.96
2018-03-29T07:37:09.942Z,69.00
2018-03-29T07:39:38.955Z,69.38
2018-03-29T07:42:07.201Z,69.21
2018-03-29T07:44:36.206Z,69.16
2018-03-29T07:47:04.483Z,69.52
2018-03-29T07:49:32.721Z,69.52
2018-03-29T07:52:02.474Z,69.80
2018-03-29T07:54:30.717Z,69.37
2018-03-29T07:56:58.950Z,68.52
2018-03-29T07:59:27.213Z,68.43
2018-03-29T08:01:55.445Z,67.87
2018-03-29T08:04:24.450Z,68.29
2018-03-29T08:06:52.693Z,67.99
2018-03-29T08:09:20.941Z,68.00
2018-03-29T08:11:49.176Z,67.77
2018-03-29T08:14:18.189Z,67.33
2018-03-29T08:16:46.447Z,68.54
2018-03-29T08:19:14.733Z,66.96
2018-03-29T08:21:43.111Z,66.56
2018-03-29T08:24:12.105Z,65.96
2018-03-29T08:26:40.342Z,66.03
2018-03-29T08:29:08.590Z,64.75
2018-03-29T08:31:36.833Z,64.98
2018-03-29T08:34:05.086Z,65.42
2018-03-29T08:36:34.087Z,64.77
2018-03-29T08:39:03.093Z,64.65
2018-03-29T08:41:31.345Z,64.32
2018-03-29T08:44:00.349Z,62.81
2018-03-29T08:46:29.353Z,63.71
2018-03-29T08:48:57.601Z,63.74
2018-03-29T08:51:26.605Z,63.10
2018-03-29T08:53:55.612Z,62.59
2018-03-29T08:56:23.852Z,62.78
2018-03-29T08:58:52.088Z,63.35
2018-03-29T09:01:20.343Z,63.51
2018-03-29T09:03:48.573Z,63.32
2018-03-29T09:06:16.816Z,62.27
2018-03-29T09:08:45.053Z,61.78
2018-03-29T09:11:13.306Z,60.92
2018-03-29T09:13:41.545Z,59.72
2018-03-29T09:16:09.792Z,58.34
2018-03-29T09:18:38.043Z,58.65
2018-03-29T09:21:07.073Z,59.35
2018-03-29T09:23:35.291Z,59.39
2018-03-29T09:26:04.329Z,59.79
2018-03-29T09:28:32.565Z,59.12
2018-03-29T09:31:00.802Z,57.86
2018-03-29T09:33:29.042Z,57.82
2018-03-29T09:35:57.289Z,58.33
2018-03-29T09:38:25.533Z,58.69
2018-03-29T09:40:53.774Z,58.20
2018-03-29T09:43:22.013Z,58.58
2018-03-29T09:45:50.253Z,58.71
2018-03-29T09:48:18.504Z,58.14
2018-03-29T09:50:46.742Z,58.96
2018-03-29T09:53:14.985Z,57.93
2018-03-29T09:55:43.220Z,57.74
2018-03-29T09:58:11.473Z,58.17
2018-03-29T10:00:40.486Z,57.81
2018-03-29T10:03:09.490Z,58.40
2018-03-29T10:05:38.625Z,57.61
2018-03-29T10:08:06.890Z,56.38
2018-03-29T10:10:35.122Z,56.05
2018-03-29T10:13:04.137Z,55.01
2018-03-29T10:15:32.371Z,54.51
2018-03-29T10:18:00.617Z,52.81
2018-03-29T10:20:28.861Z,52.49
2018-03-29T10:22:57.110Z,52.82
2018-03-29T10:25:26.114Z,53.16
2018-03-29T10:27:54.370Z,53.02
2018-03-29T10:30:23.374Z,53.06
2018-03-29T10:32:52.381Z,53.57
2018-03-29T10:35:20.625Z,53.34
2018-03-29T10:37:48.870Z,53.29
2018-03-29T10:40:17.109Z,53.06
2018-03-29T10:42:45.353Z,52.96
2018-03-29T10:45:13.610Z,53.52
2018-03-29T10:47:41.850Z,52.77
2018-03-29T10:50:10.097Z,54.01
2018-03-29T10:52:39.101Z,53.93
2018-03-29T10:55:07.352Z,53.90
2018-03-29T10:57:36.356Z,53.57
2018-03-29T11:00:05.373Z,54.40
2018-03-29T11:02:33.609Z,53.43
2018-03-29T11:05:01.851Z,52.03
2018-03-29T11:07:30.095Z,50.62
2018-03-29T11:09:58.341Z,49.86
2018-03-29T11:12:27.344Z,50.11
2018-03-29T11:14:56.345Z,51.85
2018-03-29T11:17:24.583Z,48.96
2018-03-29T11:19:52.833Z,48.32
2018-03-29T11:22:21.065Z,49.91
2018-03-29T11:24:50.065Z,50.47
2018-03-29T11:27:18.313Z,50.30
2018-03-29T11:29:46.550Z,53.30
2018-03-29T11:32:14.788Z,53.59
2018-03-29T11:34:43.025Z,53.92
2018-03-29T11:37:11.275Z,53.87
2018-03-29T11:39:39.514Z,52.71
2018-03-29T11:42:07.758Z,52.29
2018-03-29T11:44:35.993Z,52.09
2018-03-29T11:47:04.237Z,51.08
2018-03-29T11:49:32.474Z,51.21
2018-03-29T11:52:00.721Z,51.72
2018-03-29T11:54:28.957Z,52.81
2018-03-29T11:56:57.973Z,52.36
2018-03-29T11:59:26.219Z,52.01
2018-03-29T12:01:55.218Z,47.44
2018-03-29T12:04:24.222Z,51.01
2018-03-29T12:06:53.318Z,51.45
2018-03-29T12:09:21.550Z,52.01
2018-03-29T12:11:50.177Z,52.00
2018-03-29T12:14:18.407Z,51.43
2018-03-29T12:16:46.649Z,47.06
2018-03-29T12:19:14.894Z,45.60
2018-03-29T12:21:43.898Z,42.05
2018-03-29T12:24:12.146Z,44.24
2018-03-29T12:26:40.388Z,44.49
2018-03-29T12:29:08.638Z,42.96
2018-03-29T12:31:36.882Z,43.95
2018-03-29T12:34:05.891Z,44.56
2018-03-29T12:36:34.135Z,45.68
2018-03-29T12:39:02.378Z,48.69
2018-03-29T12:41:30.610Z,47.98
2018-03-29T12:43:59.618Z,46.58
2018-03-29T12:46:27.866Z,47.68
2018-03-29T12:48:56.868Z,47.62
2018-03-29T12:51:25.874Z,47.80
2018-03-29T12:53:54.119Z,43.07
2018-03-29T12:56:22.361Z,39.84
2018-03-29T12:58:50.606Z,45.39
2018-03-29T13:01:18.837Z,45.07
2018-03-29T13:03:47.088Z,42.30
2018-03-29T13:06:15.331Z,42.47
2018-03-29T13:08:43.578Z,39.12
2018-03-29T13:11:11.875Z,41.82
2018-03-29T13:13:40.118Z,37.99
2018-03-29T13:16:08.361Z,37.77
2018-03-29T13:18:36.601Z,38.29
2018-03-29T13:21:04.852Z,38.12
2018-03-29T13:23:33.870Z,40.30
2018-03-29T13:26:02.141Z,40.39
2018-03-29T13:28:31.140Z,37.50
2018-03-29T13:30:59.376Z,39.59
2018-03-29T13:33:27.617Z,45.69
2018-03-29T13:35:55.864Z,43.93
2018-03-29T13:38:24.097Z,44.96
2018-03-29T13:40:52.334Z,44.80
2018-03-29T13:43:20.582Z,43.91
2018-03-29T13:45:49.577Z,43.21
2018-03-29T13:48:17.849Z,43.36
2018-03-29T13:50:46.129Z,43.34
2018-03-29T13:53:14.366Z,40.11
2018-03-29T13:55:42.613Z,41.20
2018-03-29T13:58:10.857Z,38.58
2018-03-29T14:00:39.108Z,43.71
2018-03-29T14:03:08.115Z,44.01
2018-03-29T14:05:37.133Z,41.50
2018-03-29T14:08:05.377Z,39.77
2018-03-29T14:10:34.401Z,40.42
2018-03-29T14:13:02.646Z,42.12
2018-03-29T14:15:31.645Z,42.38
2018-03-29T14:18:00.658Z,42.74
2018-03-29T14:20:28.897Z,42.97
2018-03-29T14:22:57.136Z,43.44
2018-03-29T14:25:25.368Z,44.06
2018-03-29T14:27:53.613Z,44.68
2018-03-29T14:30:21.848Z,44.83
2018-03-29T14:32:50.096Z,44.18
2018-03-29T14:35:18.345Z,45.00
2018-03-29T14:37:47.357Z,45.24
2018-03-29T14:40:15.601Z,44.51
2018-03-29T14:42:43.848Z,45.46
2018-03-29T14:45:12.084Z,44.19
2018-03-29T14:47:40.338Z,44.79
2018-03-29T14:50:09.344Z,44.50
2018-03-29T14:52:38.356Z,45.53
2018-03-29T14:55:06.603Z,46.28
2018-03-29T14:57:34.826Z,45.66
2018-03-29T15:00:03.177Z,45.82
2018-03-29T15:02:31.424Z,45.79
2018-03-29T15:04:59.666Z,46.73
2018-03-29T15:07:27.921Z,46.68
2018-03-29T15:09:56.161Z,45.81
2018-03-29T15:12:25.170Z,45.55
2018-03-29T15:14:53.421Z,46.78
2018-03-29T15:17:22.420Z,46.75
2018-03-29T15:19:51.433Z,47.13
2018-03-29T15:22:19.687Z,46.74
2018-03-29T15:24:48.693Z,46.19
2018-03-29T15:27:16.932Z,46.45
2018-03-29T15:29:45.185Z,43.87
2018-03-29T15:32:13.425Z,46.66
2018-03-29T15:34:41.667Z,47.54
2018-03-29T15:37:09.911Z,47.53
2018-03-29T15:39:38.161Z,47.82
2018-03-29T15:42:06.402Z,48.54
2018-03-29T15:44:35.436Z,48.60
2018-03-29T15:47:03.658Z,49.40
2018-03-29T15:49:31.895Z,49.54
2018-03-29T15:52:00.147Z,49.58
2018-03-29T15:54:28.374Z,49.89
2018-03-29T15:56:56.623Z,50.31
2018-03-29T15:59:24.864Z,50.28
2018-03-29T16:01:53.872Z,50.38
2018-03-29T16:04:22.109Z,50.60
2018-03-29T16:06:50.348Z,50.46
2018-03-29T16:09:18.585Z,50.79
2018-03-29T16:11:46.828Z,50.93
2018-03-29T16:14:15.069Z,49.82
2018-03-29T16:16:43.315Z,50.69
2018-03-29T16:19:11.555Z,49.47
2018-03-29T16:21:39.798Z,46.71
2018-03-29T16:24:08.029Z,48.22
2018-03-29T16:26:37.042Z,46.61
2018-03-29T16:29:05.280Z,48.45
2018-03-29T16:31:34.293Z,49.50
2018-03-29T16:34:02.542Z,49.90
2018-03-29T16:36:30.790Z,50.51
2018-03-29T16:38:59.021Z,50.40
2018-03-29T16:41:27.265Z,50.41
2018-03-29T16:43:55.580Z,50.55
2018-03-29T16:46:23.821Z,50.71
2018-03-29T16:48:52.058Z,51.23
2018-03-29T16:51:20.297Z,51.60
2018-03-29T16:53:48.535Z,51.61
2018-03-29T16:56:16.778Z,51.95
2018-03-29T16:58:45.017Z,51.79
2018-03-29T17:01:14.022Z,51.54
2018-03-29T17:03:42.269Z,51.80
2018-03-29T17:06:10.500Z,51.84
2018-03-29T17:08:38.760Z,51.76
2018-03-29T17:11:06.998Z,52.24
2018-03-29T17:13:36.010Z,51.77
2018-03-29T17:16:04.250Z,51.44
2018-03-29T17:18:32.496Z,51.54
2018-03-29T17:21:00.737Z,51.41
2018-03-29T17:23:28.981Z,51.42
2018-03-29T17:25:57.218Z,51.24
2018-03-29T17:28:25.457Z,51.25
2018-03-29T17:30:54.460Z,51.42
2018-03-29T17:33:22.713Z,53.29
2018-03-29T17:35:51.713Z,54.24
2018-03-29T17:38:20.729Z,53.74
2018-03-29T17:40:48.969Z,53.72
2018-03-29T17:43:17.985Z,54.80
2018-03-29T17:45:46.229Z,55.54
2018-03-29T17:48:14.490Z,55.65
2018-03-29T17:50:42.704Z,56.87
2018-03-29T17:53:11.730Z,58.64
2018-03-29T17:55:39.969Z,59.36
2018-03-29T17:58:08.970Z,59.74
2018-03-29T18:00:37.217Z,59.54
2018-03-29T18:03:05.454Z,59.74
2018-03-29T18:05:33.698Z,60.13
2018-03-29T18:08:01.938Z,61.16
2018-03-29T18:10:30.184Z,61.26
2018-03-29T18:12:58.494Z,61.34
2018-03-29T18:15:26.672Z,61.61
2018-03-29T18:17:54.913Z,61.75
2018-03-29T18:20:23.163Z,61.96
2018-03-29T18:22:51.401Z,62.30
2018-03-29T18:25:20.412Z,62.46
2018-03-29T18:27:48.646Z,62.69
2018-03-29T18:30:16.902Z,62.50
2018-03-29T18:32:45.142Z,62.25
2018-03-29T18:35:13.380Z,63.02
2018-03-29T18:37:41.631Z,62.58
2018-03-29T18:40:09.868Z,63.25
2018-03-29T18:42:38.106Z,63.97
2018-03-29T18:45:06.342Z,64.17
2018-03-29T18:47:34.585Z,64.73
2018-03-29T18:50:03.612Z,64.78
2018-03-29T18:52:31.870Z,64.76
2018-03-29T18:55:00.114Z,64.52
2018-03-29T18:57:29.132Z,64.12
2018-03-29T18:59:57.374Z,63.71
2018-03-29T19:02:25.621Z,63.95
2018-03-29T19:04:53.858Z,63.71
2018-03-29T19:07:22.114Z,64.70
2018-03-29T19:09:51.117Z,66.12
2018-03-29T19:12:20.207Z,66.01
2018-03-29T19:14:49.214Z,65.76
2018-03-29T19:17:17.469Z,65.36
2018-03-29T19:19:46.478Z,67.58
2018-03-29T19:22:15.489Z,65.54
2018-03-29T19:24:43.736Z,64.55
2018-03-29T19:27:12.746Z,63.79
2018-03-29T19:29:40.981Z,65.34
2018-03-29T19:32:09.231Z,63.56
2018-03-29T19:34:37.473Z,65.75
2018-03-29T19:37:05.714Z,64.32
2018-03-29T19:39:33.967Z,64.93
2018-03-29T19:42:02.205Z,66.09
2018-03-29T19:44:30.449Z,64.61
2018-03-29T19:46:59.453Z,63.26
2018-03-29T19:49:28.468Z,62.26
2018-03-29T19:51:56.708Z,63.31
2018-03-29T19:54:25.721Z,62.97
2018-03-29T19:56:53.968Z,63.41
2018-03-29T19:59:22.217Z,62.75
2018-03-29T20:01:50.461Z,63.40
2018-03-29T20:04:18.708Z,63.68
2018-03-29T20:06:47.727Z,64.03
2018-03-29T20:09:15.976Z,64.59
2018-03-29T20:11:44.977Z,64.77
2018-03-29T20:14:13.992Z,64.67
2018-03-29T20:16:42.282Z,64.54
2018-03-29T20:19:10.522Z,64.78
2018-03-29T20:21:39.532Z,66.89
2018-03-29T20:24:07.762Z,67.66
2018-03-29T20:26:36.020Z,69.18
2018-03-29T20:29:04.281Z,69.69
2018-03-29T20:31:32.829Z,70.10
2018-03-29T20:34:01.072Z,70.68
2018-03-29T20:36:29.321Z,70.72
2018-03-29T20:38:57.578Z,70.19
2018-03-29T20:41:25.824Z,69.87
2018-03-29T20:43:54.077Z,70.96
2018-03-29T20:46:22.328Z,68.88
2018-03-29T20:48:50.584Z,68.87
2018-03-29T20:51:18.827Z,69.06
2018-03-29T20:53:47.078Z,68.68
2018-03-29T20:56:15.337Z,68.73
2018-03-29T20:58:43.582Z,69.00
2018-03-29T21:01:11.832Z,69.89
2018-03-29T21:03:40.077Z,68.40
2018-03-29T21:06:08.337Z,68.82
2018-03-29T21:08:36.578Z,68.67
2018-03-29T21:11:04.822Z,68.52
2018-03-29T21:13:33.855Z,68.62
2018-03-29T21:16:02.096Z,69.72
2018-03-29T21:18:31.113Z,70.32
2018-03-29T21:20:59.406Z,68.85
2018-03-29T21:23:27.701Z,68.56
2018-03-29T21:25:55.898Z,68.53
2018-03-29T21:28:24.916Z,68.83
2018-03-29T21:30:53.161Z,68.16
2018-03-29T21:33:21.450Z,68.37
2018-03-29T21:35:49.663Z,67.92
2018-03-29T21:38:17.909Z,69.61
2018-03-29T21:40:46.161Z,69.71
2018-03-29T21:43:14.409Z,69.21
2018-03-29T21:45:42.713Z,68.17
2018-03-29T21:48:10.959Z,67.68
2018-03-29T21:50:39.208Z,67.33
2018-03-29T21:53:07.510Z,66.99
2018-03-29T21:55:36.581Z,67.36
2018-03-29T21:58:04.826Z,66.76
2018-03-29T22:00:33.837Z,67.54
2018-03-29T22:03:02.081Z,67.12
2018-03-29T22:05:30.329Z,67.16
2018-03-29T22:07:58.575Z,67.02
2018-03-29T22:10:26.825Z,67.27
2018-03-29T22:12:55.832Z,66.90
2018-03-29T22:15:24.085Z,67.13
2018-03-29T22:17:53.097Z,67.50
2018-03-29T22:20:22.113Z,67.82
2018-03-29T22:22:50.356Z,68.60
2018-03-29T22:25:19.388Z,69.25
2018-03-29T22:27:47.614Z,69.63
2018-03-29T22:30:15.855Z,69.14
2018-03-29T22:32:44.109Z,69.80
2018-03-29T22:35:12.370Z,70.46
2018-03-29T22:37:40.617Z,70.57
2018-03-29T22:40:08.862Z,72.03
2018-03-29T22:42:37.884Z,72.65
2018-03-29T22:45:06.153Z,72.55
2018-03-29T22:47:34.409Z,71.70
2018-03-29T22:50:02.662Z,71.39
2018-03-29T22:52:30.913Z,71.54
2018-03-29T22:54:59.152Z,72.16
2018-03-29T22:57:27.426Z,71.73
2018-03-29T22:59:55.653Z,71.78
2018-03-29T23:02:23.908Z,70.98
2018-03-29T23:04:52.913Z,70.45
2018-03-29T23:07:21.160Z,72.87
2018-03-29T23:09:50.184Z,75.72
2018-03-29T23:12:18.430Z,74.68
2018-03-29T23:14:47.454Z,75.26
2018-03-29T23:17:15.696Z,74.65
2018-03-29T23:19:44.717Z,74.66
2018-03-29T23:22:12.953Z,73.98
2018-03-29T23:24:41.208Z,73.83
2018-03-29T23:27:09.452Z,72.76
2018-03-29T23:29:37.706Z,73.16
2018-03-29T23:32:06.710Z,72.74
2018-03-29T23:34:34.960Z,73.47
2018-03-29T23:37:03.973Z,73.75
2018-03-29T23:39:32.225Z,73.35
2018-03-29T23:42:00.468Z,73.28
2018-03-29T23:44:28.737Z,73.44
2018-03-29T23:46:56.982Z,74.50
2018-03-29T23:49:25.230Z,73.24
2018-03-29T23:51:53.476Z,73.88
2018-03-29T23:54:21.722Z,73.61
2018-03-29T23:56:49.981Z,73.43
2018-03-29T23:59:18.229Z,73.90
